Angleton, TX

3:47 PM CST on December 25, 2014 (GMT -0600)
Angleton, West Side | Change Station
CLOSE
Current Station
Personal Weather Station
Location: Angleton, TX
Elevation: 30 ft
Nearby Weather Stations

Elev 30 ft 29.16 °N, 95.44 °W | Updated 4 minutes ago

Mostly Cloudy
Mostly Cloudy
69.1 °F
Feels Like 69.1 °F
N
5.4
Wind Variable Wind from SSW
Gusts 5.4 mph

Today
High -- | Low -- °F
--% Chance of Precip.
Yesterday
High -- | Low -- °F
Precip. -- in
7:13 AM 5:30 PM
Waxing Crescent, 19% visible
Pressure 30.09 in
Visibility 10.0 miles
Clouds Mostly Cloudy 4600 ft
Dew Point 53 °F
Humidity 57%
Rainfall 0.00 in
Snow Depth Not available.
UV 1 out of 12
Pollen 6.50 out of 12
Air Quality Not available.
Flu Activity Not available.
METAR KLBX 252053Z AUTO 18016G21KT 10SM BKN046 17/08 A3009 RMK AO2 PK WND 17026/1956 SLP190 T01670078 56020

More Conditions Fewer Conditions

Pressure 30.09 in
Visibility 10.0 miles
Clouds Mostly Cloudy 4600 ft
Dew Point 53 °F
Humidity 57%
Rainfall 0.00 in
Snow Depth Not available.
UV 1 out of 12
Pollen 6.50 out of 12
Air Quality Not available.
Flu Activity Not available.
METAR KLBX 252053Z AUTO 18016G21KT 10SM BKN046 17/08 A3009 RMK AO2 PK WND 17026/1956 SLP190 T01670078 56020

More Conditions Fewer Conditions

10-Day Weather Forecast

Almanac

Astronomy

Dec. 25, 2014 Rise Set
Actual Time
Civil Twilight
Nautical Twilight
Astronomical Twilight
Moon
Length of Visible Light
Length of Day
Tomorrow will be .
, % of the Moon is Illuminated

Today's Extremes

State Highs State Lows

Community

WunderPhotos

Upload Photos

1,780,405 photos uploaded!

WunderBlogs® & News

Nearby

Air Quality

  Air Quality AQ Index Pollutant
Not available.

Snow Depth

Station Depth Elevation

Earthquake Activity

City Distance Mag. Time & Date
Minimum magnitude displayed is 2.5.

Coastal Water Temperatures

Place Temperature

Nearby Weather Stations